Time;durP1;ratioP1;P1;durP2;ratioP2;P2;SDS_P1;SDS_P2;PMS_P1;PMS_P2;Temp;Humidity;BMP_temperature;BMP_pressure;BME280_temperature;BME280_humidity;BME280_pressure;Samples;Min_cycle;Max_cycle;Signal;HPM_P1;HPM_P2
2023/06/17 00:01:18;;;;;;;15.80;10.43;;;;;;;18.45;68.20;101591.28;7393676;19;20436;-60
2023/06/17 00:03:45;;;;;;;13.93;9.77;;;;;;;18.45;67.98;101593.97;7394336;19;20037;-60
2023/06/17 00:06:13;;;;;;;16.92;9.93;;;;;;;18.42;67.90;101601.47;7394836;19;20372;-60
2023/06/17 00:08:40;;;;;;;13.45;8.45;;;;;;;18.38;68.18;101594.69;7395578;19;20018;-60
2023/06/17 00:11:07;;;;;;;14.07;9.00;;;;;;;18.34;67.95;101588.78;7393356;19;20018;-60
2023/06/17 00:13:34;;;;;;;16.33;8.85;;;;;;;18.33;68.19;101581.72;7394284;19;20200;-59
2023/06/17 00:16:04;;;;;;;14.48;8.95;;;;;;;18.35;68.19;101586.94;7392883;19;20010;-60
2023/06/17 00:18:36;;;;;;;13.93;8.88;;;;;;;18.34;67.99;101586.09;7394956;19;20026;-60
2023/06/17 00:21:03;;;;;;;13.52;9.10;;;;;;;18.26;68.50;101592.16;7391580;19;20025;-60
2023/06/17 00:23:30;;;;;;;14.40;8.77;;;;;;;18.28;68.35;101586.69;7393884;19;20025;-60
2023/06/17 00:25:58;;;;;;;15.35;9.00;;;;;;;18.24;68.75;101585.28;7394562;19;20011;-60
2023/06/17 00:28:25;;;;;;;15.57;8.85;;;;;;;18.26;68.60;101594.00;7394167;19;20011;-60
2023/06/17 00:30:52;;;;;;;13.90;8.43;;;;;;;18.22;68.81;101589.91;7392740;19;20019;-59
2023/06/17 00:33:19;;;;;;;16.17;9.65;;;;;;;18.23;68.50;101589.75;7393404;19;20022;-59
2023/06/17 00:35:46;;;;;;;14.85;9.18;;;;;;;18.30;68.62;101591.88;7394306;19;20015;-60
2023/06/17 00:38:14;;;;;;;13.77;8.45;;;;;;;18.38;68.09;101597.38;7394518;19;20078;-60
2023/06/17 00:40:41;;;;;;;14.82;9.05;;;;;;;18.37;68.08;101590.31;7393056;19;20251;-59
2023/06/17 00:43:08;;;;;;;14.27;9.35;;;;;;;18.38;67.91;101582.13;7391099;19;20510;-60
2023/06/17 00:45:38;;;;;;;12.77;9.80;;;;;;;18.32;68.32;101576.50;7393229;19;20022;-60
2023/06/17 00:48:08;;;;;;;14.27;10.00;;;;;;;18.23;68.78;101578.19;7393791;19;20015;-60
2023/06/17 00:50:37;;;;;;;14.65;10.30;;;;;;;18.21;69.10;101569.47;7390714;19;20032;-60
2023/06/17 00:53:06;;;;;;;16.17;11.43;;;;;;;18.27;68.97;101568.88;7392403;19;20018;-60
2023/06/17 00:55:33;;;;;;;18.85;10.73;;;;;;;18.25;68.98;101560.16;7392869;19;20022;-60
2023/06/17 00:58:01;;;;;;;16.67;12.02;;;;;;;18.23;69.56;101564.78;7393598;19;20160;-58
2023/06/17 01:00:28;;;;;;;17.38;12.00;;;;;;;18.16;69.75;101571.72;7392297;19;20022;-59
2023/06/17 01:02:56;;;;;;;18.23;11.75;;;;;;;18.15;69.94;101568.19;7392183;19;20014;-58
2023/06/17 01:05:24;;;;;;;16.30;10.93;;;;;;;18.21;69.63;101570.31;7392800;19;20022;-58
2023/06/17 01:07:58;;;;;;;21.15;13.60;;;;;;;18.21;69.59;101570.31;7393444;19;20018;-59
2023/06/17 01:10:41;;;;;;;20.90;13.60;;;;;;;18.22;69.77;101569.31;7392355;19;20029;-58
2023/06/17 01:13:12;;;;;;;18.85;13.43;;;;;;;18.14;69.99;101562.97;7392240;19;20020;-61
2023/06/17 01:15:39;;;;;;;16.92;12.70;;;;;;;18.14;69.88;101555.78;7393088;19;20022;-60
2023/06/17 01:18:08;;;;;;;22.13;14.05;;;;;;;18.14;70.08;101557.63;7392937;19;20035;-60
2023/06/17 01:20:36;;;;;;;22.00;14.15;;;;;;;18.13;70.00;101556.78;7391626;19;20030;-60
2023/06/17 01:23:05;;;;;;;19.67;13.77;;;;;;;18.06;70.43;101563.69;7391956;19;20022;-59
2023/06/17 01:25:34;;;;;;;19.13;13.10;;;;;;;18.10;69.93;101562.41;7391827;19;20015;-60
2023/06/17 01:28:19;;;;;;;20.40;14.85;;;;;;;18.08;69.75;101563.53;7392443;19;20027;-58
2023/06/17 01:30:47;;;;;;;25.15;13.88;;;;;;;17.97;70.29;101562.72;7389460;19;20501;-58
2023/06/17 01:33:15;;;;;;;20.38;13.60;;;;;;;18.06;69.86;101560.16;7391913;19;20022;-58
2023/06/17 01:35:57;;;;;;;18.77;12.90;;;;;;;18.11;69.75;101568.63;7391524;19;20078;-62
2023/06/17 01:38:34;;;;;;;18.83;14.05;;;;;;;18.08;69.91;101568.91;7392139;19;20018;-62
2023/06/17 01:41:06;;;;;;;21.88;15.05;;;;;;;17.87;70.63;101571.72;7390501;19;20021;-61
2023/06/17 01:43:35;;;;;;;22.50;15.05;;;;;;;17.93;70.55;101571.16;7391767;19;20015;-58
2023/06/17 01:46:04;;;;;;;20.17;14.05;;;;;;;17.93;70.12;101572.03;7391225;19;20030;-58
2023/06/17 01:48:32;;;;;;;19.02;13.77;;;;;;;18.02;70.04;101571.16;7390240;19;20019;-58
2023/06/17 01:50:59;;;;;;;20.58;15.02;;;;;;;18.07;69.88;101576.09;7390571;19;20035;-58
2023/06/17 01:53:26;;;;;;;19.55;13.45;;;;;;;18.01;69.98;101569.47;7389096;19;20201;-58
2023/06/17 01:55:53;;;;;;;20.67;13.35;;;;;;;18.06;69.86;101571.72;7392166;19;20018;-58
2023/06/17 01:58:21;;;;;;;19.40;13.00;;;;;;;18.08;69.74;101568.91;7392621;19;20031;-58
2023/06/17 02:00:48;;;;;;;17.92;13.68;;;;;;;18.06;69.99;101568.22;7390279;19;20018;-58
2023/06/17 02:03:15;;;;;;;18.00;13.30;;;;;;;18.02;69.93;101568.47;7390424;19;20021;-58
2023/06/17 02:05:44;;;;;;;19.27;13.63;;;;;;;18.07;69.90;101561.84;7390942;19;20014;-58
2023/06/17 02:08:14;;;;;;;19.80;13.40;;;;;;;18.12;69.59;101560.41;7389585;19;20031;-58
2023/06/17 02:10:41;;;;;;;16.23;11.93;;;;;;;18.11;69.63;101564.09;7390426;19;20026;-58
2023/06/17 02:13:08;;;;;;;20.60;14.25;;;;;;;18.17;69.57;101560.00;7390169;19;20038;-58
2023/06/17 02:15:36;;;;;;;18.27;13.10;;;;;;;18.12;69.78;101557.75;7391115;19;20034;-58
2023/06/17 02:18:04;;;;;;;21.15;14.77;;;;;;;18.10;69.83;101557.06;7391133;19;20486;-58
2023/06/17 02:20:31;;;;;;;20.40;14.45;;;;;;;18.11;69.81;101555.22;7390116;19;20015;-58
2023/06/17 02:22:58;;;;;;;16.88;13.50;;;;;;;18.14;69.32;101552.25;7389454;19;20552;-58
2023/06/17 02:25:26;;;;;;;16.52;14.15;;;;;;;18.14;69.33;101550.41;7388921;19;20019;-58
2023/06/17 02:27:53;;;;;;;23.20;14.50;;;;;;;18.21;69.35;101550.69;7389962;19;20501;-58
2023/06/17 02:30:20;;;;;;;18.30;13.85;;;;;;;18.17;69.12;101558.19;7389813;19;20490;-58
2023/06/17 02:32:48;;;;;;;20.67;14.98;;;;;;;18.17;69.42;101551.97;7387979;19;20023;-58
2023/06/17 02:35:15;;;;;;;19.10;14.30;;;;;;;18.15;69.32;101556.63;7390722;19;20055;-58
2023/06/17 02:37:43;;;;;;;17.77;13.90;;;;;;;18.14;69.42;101549.56;7390080;19;20086;-58
2023/06/17 02:40:10;;;;;;;19.20;13.90;;;;;;;18.13;69.58;101543.38;7390054;19;20026;-59
2023/06/17 02:42:38;;;;;;;19.15;13.63;;;;;;;18.11;69.45;101544.50;7388057;19;20011;-58
2023/06/17 02:45:11;;;;;;;19.25;13.95;;;;;;;18.09;69.49;101547.31;7390333;19;20010;-58
2023/06/17 02:47:40;;;;;;;18.77;13.15;;;;;;;18.16;69.28;101534.16;7390138;19;20038;-58
2023/06/17 02:50:08;;;;;;;20.05;13.45;;;;;;;18.19;68.96;101541.94;7389672;19;20015;-59
2023/06/17 02:52:38;;;;;;;17.52;13.82;;;;;;;18.09;69.32;101544.66;7387282;19;20015;-58
2023/06/17 02:55:05;;;;;;;19.60;14.55;;;;;;;18.09;69.16;101549.16;7390075;19;20015;-59
2023/06/17 02:57:33;;;;;;;20.60;13.73;;;;;;;18.13;69.33;101553.25;7389453;19;20014;-58
2023/06/17 03:00:00;;;;;;;19.50;13.85;;;;;;;18.17;69.18;101558.19;7389792;19;20022;-58
2023/06/17 03:02:28;;;;;;;19.48;13.65;;;;;;;18.18;69.06;101556.34;7389522;19;20097;-60
2023/06/17 03:04:55;;;;;;;20.50;14.77;;;;;;;18.13;68.96;101556.78;7389775;19;20513;-60
2023/06/17 03:07:24;;;;;;;19.75;14.82;;;;;;;18.14;69.04;101552.25;7387670;19;20538;-60
2023/06/17 03:09:51;;;;;;;17.90;13.98;;;;;;;18.09;69.26;101549.16;7387895;19;20026;-57
2023/06/17 03:12:19;;;;;;;20.63;14.95;;;;;;;18.13;69.11;101554.09;7387316;19;20027;-57
2023/06/17 03:14:49;;;;;;;15.75;12.65;;;;;;;18.21;68.69;101558.75;7389550;19;20015;-57
2023/06/17 03:17:16;;;;;;;17.55;12.57;;;;;;;18.15;68.45;101564.66;7389061;19;20022;-57
2023/06/17 03:19:44;;;;;;;15.45;12.23;;;;;;;18.15;68.32;101554.78;7387971;19;20517;-57
2023/06/17 03:22:11;;;;;;;18.08;13.63;;;;;;;18.14;68.30;101562.97;7392790;19;20022;-57
2023/06/17 03:24:38;;;;;;;18.65;13.30;;;;;;;18.16;68.52;101563.66;7396086;19;20006;-57
2023/06/17 03:27:06;;;;;;;18.88;12.98;;;;;;;18.14;68.39;101561.13;7396635;19;20018;-56
2023/06/17 03:29:36;;;;;;;16.60;11.68;;;;;;;18.17;68.44;101566.22;7396442;19;20018;-57
2023/06/17 03:32:03;;;;;;;16.80;11.77;;;;;;;18.19;68.25;101560.69;7393161;19;20011;-57
2023/06/17 03:34:32;;;;;;;18.25;12.52;;;;;;;18.21;68.28;101558.75;7396115;19;20022;-56
2023/06/17 03:36:59;;;;;;;19.50;14.23;;;;;;;18.18;68.42;101561.69;7396088;19;20053;-56
2023/06/17 03:39:27;;;;;;;19.25;12.98;;;;;;;18.07;69.00;101553.81;7395232;19;20078;-56
2023/06/17 03:41:54;;;;;;;18.05;11.65;;;;;;;18.10;68.70;101550.84;7390939;19;20018;-61
2023/06/17 03:44:21;;;;;;;17.95;12.80;;;;;;;18.10;68.69;101546.31;7395376;19;20029;-60
2023/06/17 03:46:48;;;;;;;18.65;12.98;;;;;;;18.12;68.85;101546.16;7395632;19;20039;-58
2023/06/17 03:49:15;;;;;;;16.63;12.07;;;;;;;18.15;68.57;101548.56;7395052;19;20501;-63
2023/06/17 03:51:43;;;;;;;18.95;12.32;;;;;;;18.11;68.56;101552.53;7390931;19;20045;-62
2023/06/17 03:54:10;;;;;;;17.33;12.65;;;;;;;18.04;68.56;101552.25;7393647;19;20018;-62
2023/06/17 03:56:37;;;;;;;17.63;10.88;;;;;;;18.05;68.33;101551.28;7393604;19;20018;-62
2023/06/17 03:59:05;;;;;;;19.15;12.27;;;;;;;18.09;68.15;101544.66;7395293;19;20011;-62
2023/06/17 04:01:32;;;;;;;18.65;12.10;;;;;;;18.10;68.26;101553.53;7393966;19;20018;-63
2023/06/17 04:03:59;;;;;;;18.05;11.77;;;;;;;18.08;68.12;101550.13;7394604;19;20033;-62
2023/06/17 04:06:27;;;;;;;19.38;11.43;;;;;;;18.11;68.23;101555.22;7395570;19;20019;-62
2023/06/17 04:08:54;;;;;;;17.55;11.68;;;;;;;18.11;68.27;101556.06;7394910;19;20023;-62
2023/06/17 04:11:21;;;;;;;16.67;11.73;;;;;;;18.14;68.27;101555.78;7392828;19;20104;-62
2023/06/17 04:13:48;;;;;;;18.63;12.27;;;;;;;18.17;68.56;101551.97;7393773;19;20541;-63
2023/06/17 04:16:16;;;;;;;19.42;12.40;;;;;;;18.18;68.41;101543.78;7394334;19;20029;-63
2023/06/17 04:18:43;;;;;;;17.50;11.73;;;;;;;18.21;68.34;101548.84;7394094;19;20021;-63
2023/06/17 04:21:10;;;;;;;13.88;10.73;;;;;;;18.17;68.51;101552.81;7392782;19;20022;-63
2023/06/17 04:23:37;;;;;;;16.98;11.60;;;;;;;18.13;68.83;101553.25;7393208;19;20021;-63
2023/06/17 04:26:05;;;;;;;19.00;11.90;;;;;;;18.17;68.47;101550.13;7394183;19;20010;-58
2023/06/17 04:28:32;;;;;;;16.85;11.02;;;;;;;18.20;68.64;101552.53;7393945;19;20043;-58
2023/06/17 04:31:01;;;;;;;16.33;11.55;;;;;;;18.19;68.76;101549.97;7391692;19;20082;-58
2023/06/17 04:33:30;;;;;;;18.98;12.05;;;;;;;18.24;68.36;101556.63;7391383;19;20645;-58
2023/06/17 04:35:58;;;;;;;18.33;11.10;;;;;;;18.25;68.28;101550.25;7394304;19;20047;-58
2023/06/17 04:38:25;;;;;;;20.17;12.52;;;;;;;18.27;68.36;101548.25;7393317;19;20025;-58
2023/06/17 04:40:52;;;;;;;18.95;11.70;;;;;;;18.30;68.13;101546.31;7393243;19;20019;-58
2023/06/17 04:43:22;;;;;;;16.83;11.82;;;;;;;18.27;68.33;101552.78;7392850;19;20037;-59
2023/06/17 04:45:51;;;;;;;14.52;10.55;;;;;;;18.31;68.14;101558.72;7393754;19;20035;-58
2023/06/17 04:48:19;;;;;;;18.27;11.60;;;;;;;18.32;68.07;101552.38;7393385;19;20015;-58
2023/06/17 04:50:47;;;;;;;19.55;11.82;;;;;;;18.29;68.24;101547.28;7392582;19;20067;-58
2023/06/17 04:53:15;;;;;;;19.05;11.13;;;;;;;18.22;68.66;101550.53;7389147;19;20497;-59
2023/06/17 04:55:43;;;;;;;17.95;12.07;;;;;;;18.25;68.20;101550.25;7391407;19;20462;-60
2023/06/17 04:58:10;;;;;;;19.33;11.18;;;;;;;18.27;68.12;101552.78;7393392;19;20018;-59
2023/06/17 05:00:37;;;;;;;21.42;12.35;;;;;;;18.26;68.10;101551.09;7392486;19;20018;-59
2023/06/17 05:03:05;;;;;;;17.45;11.43;;;;;;;18.26;67.98;101551.94;7392489;19;20015;-59
2023/06/17 05:05:32;;;;;;;17.30;11.35;;;;;;;18.30;68.12;101559.72;7393130;19;20029;-59
2023/06/17 05:07:59;;;;;;;17.55;11.50;;;;;;;18.31;67.94;101542.63;7393281;19;20022;-61
2023/06/17 05:10:27;;;;;;;14.77;10.77;;;;;;;18.37;67.82;101548.25;7392246;19;20015;-56
2023/06/17 05:12:54;;;;;;;14.50;10.88;;;;;;;18.39;67.82;101551.66;7389411;19;20018;-57
2023/06/17 05:15:21;;;;;;;15.05;9.40;;;;;;;18.43;67.70;101546.81;7392263;19;20466;-57
2023/06/17 05:17:48;;;;;;;15.75;11.00;;;;;;;18.51;67.74;101542.44;7391124;19;20181;-57
2023/06/17 05:20:16;;;;;;;15.15;10.73;;;;;;;18.55;67.44;101545.69;7392041;19;20018;-57
2023/06/17 05:22:43;;;;;;;15.95;9.55;;;;;;;18.61;67.48;101544.25;7391505;19;20025;-57
2023/06/17 05:25:11;;;;;;;14.60;10.35;;;;;;;18.57;67.16;101541.00;7392561;19;20094;-57
2023/06/17 05:27:38;;;;;;;16.30;10.50;;;;;;;18.58;66.91;101549.88;7392271;19;20014;-56
2023/06/17 05:30:06;;;;;;;15.90;10.35;;;;;;;18.57;66.76;101557.09;7391827;19;20118;-57
2023/06/17 05:32:33;;;;;;;16.13;10.65;;;;;;;18.64;66.85;101554.69;7390440;19;20018;-57
2023/06/17 05:35:01;;;;;;;17.45;10.90;;;;;;;18.63;67.30;101558.38;7392210;19;20202;-58
2023/06/17 05:37:28;;;;;;;15.20;10.05;;;;;;;18.65;66.92;101551.84;7390199;19;20051;-58
2023/06/17 05:39:55;;;;;;;17.95;10.40;;;;;;;18.66;66.42;101550.00;7391091;19;20085;-58
2023/06/17 05:42:22;;;;;;;15.07;10.55;;;;;;;18.69;66.70;101553.25;7389116;19;20082;-58
2023/06/17 05:44:49;;;;;;;13.73;9.30;;;;;;;18.67;66.58;101557.94;7391269;19;20015;-58
2023/06/17 05:47:17;;;;;;;16.05;11.30;;;;;;;18.68;66.72;101559.59;7391446;19;20070;-58
2023/06/17 05:49:44;;;;;;;17.83;10.32;;;;;;;18.67;66.80;101559.78;7389627;19;20378;-58
2023/06/17 05:52:11;;;;;;;14.90;10.00;;;;;;;18.70;66.48;101556.81;7389245;19;20015;-59
2023/06/17 05:54:41;;;;;;;14.38;9.70;;;;;;;18.73;66.47;101562.75;7390972;19;20031;-58
2023/06/17 05:57:08;;;;;;;17.67;10.48;;;;;;;18.67;66.39;101565.97;7391665;19;20021;-58
2023/06/17 05:59:35;;;;;;;15.75;9.98;;;;;;;18.67;66.25;101559.78;7389852;19;20130;-58
2023/06/17 06:02:03;;;;;;;15.82;10.07;;;;;;;18.61;66.64;101563.03;7388986;19;20011;-61
2023/06/17 06:04:30;;;;;;;17.13;9.35;;;;;;;18.72;66.77;101562.88;7391164;19;20490;-59
2023/06/17 06:06:57;;;;;;;16.67;10.90;;;;;;;18.72;66.25;101568.25;7389290;19;20013;-60
2023/06/17 06:09:24;;;;;;;15.32;9.48;;;;;;;18.79;66.53;101569.34;7390924;19;20015;-59
2023/06/17 06:11:52;;;;;;;16.90;11.45;;;;;;;18.85;65.93;101566.09;7388669;19;20023;-59
2023/06/17 06:14:19;;;;;;;17.42;11.18;;;;;;;18.87;65.62;101571.31;7390842;19;20026;-59
2023/06/17 06:16:46;;;;;;;16.27;10.63;;;;;;;18.82;66.23;101577.13;7390803;19;20035;-59
2023/06/17 06:19:13;;;;;;;14.57;9.60;;;;;;;18.89;66.02;101578.22;7391474;19;20019;-59
2023/06/17 06:21:41;;;;;;;16.63;10.23;;;;;;;18.96;65.95;101573.09;7388455;19;20026;-59
2023/06/17 06:24:08;;;;;;;16.17;9.68;;;;;;;18.98;65.79;101571.97;7390399;19;20078;-59
2023/06/17 06:26:35;;;;;;;16.77;10.38;;;;;;;19.01;65.54;101572.69;7390390;19;20015;-59
2023/06/17 06:29:02;;;;;;;14.35;10.30;;;;;;;19.01;65.75;101580.72;7390867;19;20014;-61
2023/06/17 06:31:30;;;;;;;15.77;10.77;;;;;;;18.93;65.88;101584.16;7388831;19;20046;-59
2023/06/17 06:33:57;;;;;;;17.42;10.45;;;;;;;18.91;65.75;101580.75;7387812;19;20023;-59
2023/06/17 06:36:24;;;;;;;15.32;11.23;;;;;;;18.87;65.89;101587.41;7390082;19;20018;-59
2023/06/17 06:38:51;;;;;;;16.02;11.65;;;;;;;18.93;66.09;101582.31;7390075;19;20474;-59
2023/06/17 06:41:19;;;;;;;18.98;11.02;;;;;;;18.96;66.11;101589.19;7388906;19;20022;-59
2023/06/17 06:43:46;;;;;;;17.60;10.98;;;;;;;19.04;65.69;101583.09;7390062;19;20019;-60
2023/06/17 06:46:13;;;;;;;17.45;12.43;;;;;;;18.98;65.28;101592.59;7389569;19;20021;-59
2023/06/17 06:48:42;;;;;;;17.60;11.13;;;;;;;18.93;65.09;101597.56;7388803;19;20018;-59
2023/06/17 06:51:09;;;;;;;17.92;10.80;;;;;;;18.97;65.46;101602.50;7388295;19;20014;-60
2023/06/17 06:53:37;;;;;;;15.73;10.13;;;;;;;19.10;65.32;101598.63;7388393;19;20149;-57
2023/06/17 06:56:04;;;;;;;16.75;10.48;;;;;;;19.10;65.36;101602.16;7397431;19;20490;-59
2023/06/17 06:58:32;;;;;;;15.02;10.55;;;;;;;19.15;65.57;101599.84;7397583;19;20089;-59
2023/06/17 07:00:59;;;;;;;18.40;12.40;;;;;;;19.03;65.60;101598.38;7395611;19;20082;-59
2023/06/17 07:03:27;;;;;;;17.40;10.75;;;;;;;19.11;65.35;101601.16;7396632;19;20015;-60
2023/06/17 07:05:55;;;;;;;15.25;11.05;;;;;;;19.17;65.24;101605.94;7396835;19;20018;-60
2023/06/17 07:08:24;;;;;;;16.50;11.48;;;;;;;19.27;64.72;101599.66;7397657;19;20358;-60
2023/06/17 07:10:51;;;;;;;16.38;10.65;;;;;;;19.34;64.78;101600.75;7395775;19;20029;-62
2023/06/17 07:13:18;;;;;;;15.00;10.57;;;;;;;19.47;64.28;101595.91;7394194;19;20021;-58
2023/06/17 07:15:46;;;;;;;16.70;10.70;;;;;;;19.55;63.78;101596.00;7395136;19;20022;-58
2023/06/17 07:18:14;;;;;;;15.35;10.00;;;;;;;19.62;63.08;101599.78;7397006;19;20503;-58
2023/06/17 07:20:42;;;;;;;16.05;10.52;;;;;;;19.64;63.53;101603.16;7395495;19;20018;-58
2023/06/17 07:23:09;;;;;;;18.70;11.88;;;;;;;19.58;63.61;101611.81;7396055;19;20435;-59
2023/06/17 07:25:36;;;;;;;18.13;11.88;;;;;;;19.40;64.13;101614.44;7397024;19;20014;-58
2023/06/17 07:28:05;;;;;;;21.50;12.43;;;;;;;19.35;64.33;101608.69;7396004;19;20018;-58
2023/06/17 07:30:32;;;;;;;17.50;11.45;;;;;;;19.37;64.60;101608.53;7393712;19;20044;-58
2023/06/17 07:33:02;;;;;;;19.33;11.63;;;;;;;19.46;64.01;101621.09;7394090;19;20029;-59
2023/06/17 07:35:30;;;;;;;20.02;11.60;;;;;;;19.53;63.53;101614.09;7394701;19;20031;-58
2023/06/17 07:37:58;;;;;;;17.83;10.95;;;;;;;19.63;63.23;101612.22;7393477;19;20022;-58
2023/06/17 07:40:25;;;;;;;17.70;10.10;;;;;;;19.78;62.58;101614.41;7394556;19;20015;-59
2023/06/17 07:42:52;;;;;;;16.38;11.50;;;;;;;19.78;62.59;101617.94;7392753;19;20023;-59
2023/06/17 07:45:19;;;;;;;18.67;11.20;;;;;;;19.75;63.23;101614.69;7393951;19;20029;-59
2023/06/17 07:47:48;;;;;;;17.90;12.80;;;;;;;19.78;62.85;101620.63;7395225;19;20050;-59
2023/06/17 07:50:15;;;;;;;20.98;12.00;;;;;;;19.84;63.24;101620.03;7395270;19;20018;-59
2023/06/17 07:52:42;;;;;;;19.15;10.77;;;;;;;19.82;63.11;101618.47;7393685;19;20389;-59
2023/06/17 07:55:10;;;;;;;17.65;10.60;;;;;;;19.90;62.55;101614.03;7394906;19;20029;-59
2023/06/17 07:57:37;;;;;;;25.33;13.10;;;;;;;19.94;63.07;101622.63;7395047;19;20021;-59
2023/06/17 08:00:09;;;;;;;16.27;11.32;;;;;;;19.98;63.24;101618.63;7394864;19;20026;-59
2023/06/17 08:02:36;;;;;;;18.33;11.80;;;;;;;20.03;62.45;101616.31;7393922;19;20478;-59
2023/06/17 08:05:04;;;;;;;15.95;10.13;;;;;;;20.16;61.76;101619.47;7394090;19;20018;-59
2023/06/17 08:07:32;;;;;;;17.00;10.60;;;;;;;20.23;61.50;101616.19;7393143;19;20514;-59
2023/06/17 08:15:22;;;;;;;16.23;10.23;;;;;;;20.29;60.68;101610.16;7383198;19;20531;-62
2023/06/17 08:17:50;;;;;;;17.80;11.00;;;;;;;20.34;60.24;101610.56;7382404;19;20019;-58
2023/06/17 08:20:18;;;;;;;15.15;9.40;;;;;;;20.44;60.23;101608.59;7390227;19;20018;-59
2023/06/17 08:22:46;;;;;;;15.30;10.10;;;;;;;20.53;59.70;101607.72;7391599;19;20491;-59
2023/06/17 08:25:13;;;;;;;14.18;8.95;;;;;;;20.65;60.20;101611.00;7384658;19;20145;-59
2023/06/17 08:27:47;;;;;;;17.00;10.30;;;;;;;20.67;59.95;101611.66;7393338;19;20025;-59
2023/06/17 08:30:14;;;;;;;17.83;11.23;;;;;;;20.75;59.52;101608.19;7393409;19;20019;-59
2023/06/17 08:32:42;;;;;;;18.45;10.85;;;;;;;20.72;59.64;101609.34;7393005;19;20488;-59
2023/06/17 08:35:09;;;;;;;19.15;9.43;;;;;;;20.83;59.64;101613.59;7390813;19;20022;-59
2023/06/17 08:37:36;;;;;;;14.77;10.50;;;;;;;20.87;59.71;101602.38;7393365;19;20042;-58
2023/06/17 08:40:04;;;;;;;18.10;10.98;;;;;;;20.67;59.71;101614.34;7393288;19;20034;-58
2023/06/17 08:42:32;;;;;;;14.77;10.30;;;;;;;20.67;59.98;101612.50;7392866;19;20546;-56
2023/06/17 08:45:02;;;;;;;18.00;11.30;;;;;;;20.69;60.05;101615.91;7389257;19;20025;-56
2023/06/17 08:47:30;;;;;;;17.30;10.52;;;;;;;20.69;59.75;101612.38;7391407;19;20385;-57
2023/06/17 08:49:57;;;;;;;16.15;11.68;;;;;;;20.84;59.33;101616.16;7393020;19;20022;-56
2023/06/17 08:52:27;;;;;;;21.90;13.27;;;;;;;20.87;59.11;101614.97;7392606;19;20018;-56
2023/06/17 08:54:55;;;;;;;20.60;14.60;;;;;;;20.86;59.52;101621.38;7391610;19;20042;-56
2023/06/17 08:57:22;;;;;;;15.48;10.32;;;;;;;20.81;59.32;101627.25;7392275;19;20047;-57
2023/06/17 08:59:49;;;;;;;16.55;11.10;;;;;;;20.83;58.78;101621.69;7392776;19;20010;-57
2023/06/17 09:02:17;;;;;;;18.95;10.80;;;;;;;20.94;58.69;101616.03;7391715;19;20018;-57
2023/06/17 09:04:44;;;;;;;17.98;11.10;;;;;;;21.17;58.24;101614.47;7391079;19;20014;-57
2023/06/17 09:07:12;;;;;;;19.35;12.70;;;;;;;21.22;58.26;101608.63;7392574;19;20018;-56
2023/06/17 09:09:40;;;;;;;16.35;12.70;;;;;;;21.26;58.78;101614.53;7392197;19;20074;-56
2023/06/17 09:12:08;;;;;;;20.08;12.68;;;;;;;21.28;58.72;101609.81;7390939;19;20010;-57
2023/06/17 09:14:36;;;;;;;19.33;12.77;;;;;;;21.34;58.68;101606.50;7389006;19;20022;-57
2023/06/17 09:17:03;;;;;;;18.67;12.32;;;;;;;21.31;58.63;101602.25;7392355;19;21080;-57
2023/06/17 09:19:32;;;;;;;19.58;12.40;;;;;;;21.30;58.63;101605.13;7392296;19;20021;-57
2023/06/17 09:22:06;;;;;;;22.77;14.00;;;;;;;21.26;58.80;101595.66;7391569;19;20018;-58
2023/06/17 09:24:33;;;;;;;21.40;13.25;;;;;;;21.17;58.78;101602.84;7390769;19;20022;-57
2023/06/17 09:27:02;;;;;;;21.63;13.82;;;;;;;21.21;58.56;101606.91;7392480;19;20015;-57
2023/06/17 09:29:29;;;;;;;22.80;13.65;;;;;;;21.24;58.47;101608.44;7390320;19;20021;-57
2023/06/17 09:31:57;;;;;;;20.98;12.05;;;;;;;21.25;58.74;101604.72;7391142;19;20336;-57
2023/06/17 09:34:26;;;;;;;23.52;13.73;;;;;;;21.43;57.93;101613.59;7388603;19;20022;-58
2023/06/17 09:37:00;;;;;;;22.05;14.18;;;;;;;21.50;57.99;101617.34;7391848;19;20071;-58
2023/06/17 09:39:32;;;;;;;22.30;14.38;;;;;;;21.33;58.47;101620.97;7391215;19;20022;-57
2023/06/17 09:42:07;;;;;;;24.92;14.60;;;;;;;21.15;59.08;101616.50;7391106;19;20022;-58
2023/06/17 09:44:39;;;;;;;20.60;13.52;;;;;;;21.28;58.40;101605.25;7389354;19;20022;-57
2023/06/17 09:47:08;;;;;;;22.00;13.07;;;;;;;21.48;57.66;101613.94;7391428;19;20014;-57
2023/06/17 09:49:38;;;;;;;19.02;13.45;;;;;;;21.57;57.38;101604.91;7389396;19;20018;-57
2023/06/17 09:52:08;;;;;;;21.63;14.32;;;;;;;21.48;57.66;101602.31;7390636;19;20015;-57
2023/06/17 09:54:36;;;;;;;23.55;14.45;;;;;;;21.26;58.26;101611.84;7389498;19;20032;-57
2023/06/17 09:57:09;;;;;;;21.10;13.98;;;;;;;21.36;58.40;101609.88;7391371;19;20073;-57
2023/06/17 09:59:37;;;;;;;22.42;13.27;;;;;;;21.35;58.14;101609.03;7391537;19;20010;-57
2023/06/17 10:02:05;;;;;;;20.20;13.55;;;;;;;21.35;58.75;101606.31;7390486;19;20018;-57
2023/06/17 10:04:32;;;;;;;21.52;13.45;;;;;;;21.42;58.27;101618.16;7389572;19;20019;-57
2023/06/17 10:07:06;;;;;;;19.10;13.98;;;;;;;21.67;57.23;101615.50;7390904;19;20531;-57
2023/06/17 10:09:33;;;;;;;23.52;14.80;;;;;;;21.69;56.70;101610.81;7390433;19;20035;-57
2023/06/17 10:12:02;;;;;;;23.65;13.60;;;;;;;21.69;56.70;101607.28;7387858;19;20018;-57
2023/06/17 10:14:33;;;;;;;21.60;12.93;;;;;;;21.78;57.01;101609.81;7389670;19;20014;-57
2023/06/17 10:17:03;;;;;;;19.45;12.70;;;;;;;21.90;56.35;101605.81;7390687;19;20029;-58
2023/06/17 10:19:33;;;;;;;22.52;13.30;;;;;;;21.97;56.76;101608.66;7389165;19;20011;-58
2023/06/17 10:22:04;;;;;;;20.25;13.48;;;;;;;21.89;56.43;101612.19;7389657;19;20079;-58
2023/06/17 10:24:32;;;;;;;21.33;13.60;;;;;;;21.94;56.42;101609.03;7389658;19;20015;-58
2023/06/17 10:27:05;;;;;;;20.52;12.52;;;;;;;21.97;56.45;101605.13;7390081;19;20046;-58
2023/06/17 10:29:32;;;;;;;20.38;12.70;;;;;;;21.82;56.61;101605.78;7392567;19;20377;-58
2023/06/17 10:32:19;;;;;;;19.73;12.82;;;;;;;21.90;56.06;101600.41;7397062;19;20022;-58
2023/06/17 10:35:05;;;;;;;20.98;12.75;;;;;;;22.03;56.34;101605.31;7395294;19;20028;-58
2023/06/17 10:37:45;;;;;;;18.38;11.43;;;;;;;22.13;55.62;101597.03;7397004;19;20026;-58
2023/06/17 10:40:26;;;;;;;19.42;13.38;;;;;;;22.41;55.05;101604.84;7397952;19;20036;-58
2023/06/17 10:43:02;;;;;;;20.58;13.50;;;;;;;22.47;54.84;101606.84;7395728;19;20019;-58
2023/06/17 10:45:50;;;;;;;22.13;12.73;;;;;;;22.32;55.41;101601.28;7397607;19;20031;-57
2023/06/17 10:48:22;;;;;;;22.42;14.35;;;;;;;22.12;55.41;101593.50;7397158;19;20014;-58
2023/06/17 10:50:52;;;;;;;19.92;13.43;;;;;;;21.95;56.23;101599.91;7397533;19;20023;-58
2023/06/17 10:53:36;;;;;;;21.67;13.60;;;;;;;21.96;56.03;101595.34;7395759;19;20018;-58
2023/06/17 10:56:04;;;;;;;21.30;12.85;;;;;;;21.86;56.16;101587.41;7397445;19;20034;-58
2023/06/17 10:58:37;;;;;;;21.27;12.90;;;;;;;21.97;56.08;101583.56;7397167;19;20118;-57
2023/06/17 11:01:06;;;;;;;22.38;12.88;;;;;;;21.96;56.08;101580.00;7399839;19;20097;-55
2023/06/17 11:03:34;;;;;;;23.15;12.98;;;;;;;21.98;56.50;101580.72;7395363;19;20014;-55
2023/06/17 11:06:03;;;;;;;21.45;12.35;;;;;;;22.05;56.50;101580.84;7397372;19;20352;-57
2023/06/17 11:08:33;;;;;;;17.63;10.68;;;;;;;22.07;56.12;101577.00;7396442;19;20014;-57
2023/06/17 11:11:15;;;;;;;16.45;10.75;;;;;;;22.11;55.36;101581.03;7396234;19;20086;-55
2023/06/17 11:13:50;;;;;;;19.90;10.52;;;;;;;22.05;56.18;101579.00;7392561;19;20040;-56
2023/06/17 11:16:18;;;;;;;14.30;9.75;;;;;;;21.98;56.13;101569.91;7396654;19;20022;-57
2023/06/17 11:18:46;;;;;;;17.45;10.00;;;;;;;22.08;55.59;101572.44;7394552;19;20115;-57
2023/06/17 11:21:17;;;;;;;16.05;9.50;;;;;;;22.24;55.45;101567.06;7396923;19;20085;-56